MDSDMDLR

Guest
Details From MDSD - Las Americas Intl
To MDLR - La Romana Casa De Campo Intl
Flight Number -
Tags generated
Created
Modified
Stats Distance 43 nm / 80 km
Max Altitude 4,300 ft / 1,311 m
Waypoints 4
Social Downloads 2
Likes 0
Share VATSIM

Download

Looking for another format? Having issues loading an existing format? Contact us
Advertisement - Login to hide

Notes

Basic altitude profile: - Ascent Rate: 2500ft/min - Ascent Speed: 250kts - Cruise Altitude: 6000ft - Cruise Speed: 420kts - Descent Rate: 1500ft/min - Descent Speed: 250kts Options: - Use NATs: yes - Use PACOTS: yes - Use low airways: yes - Use high airways: yes

Route

MDSD PIVAR W6 LRN MDLR

ID Type Via Altitude Latitude Longitude Leg Dist Tot Dist Heading (true) Name
O MDSD APT - 0 ft / 0 m 18.42966˚ -69.66893˚ - 0 nm - Las Americas Intl
PIVAR FIX - 4,300 ft / 1,311 m 18.44778˚ -69.26250˚ 23 nm 23 nm 87° / 87° -
LRN VOR W6 (AWY-LO) 4,000 ft / 1,219 m 18.45389˚ -68.91194˚ 19 nm 43 nm 89° / 89° LA ROMANA VOR-DME
O MDLR APT - 0 ft / 0 m 18.45071˚ -68.91183˚ 0 nm 43 nm 178° / 178° La Romana Casa De Campo Intl

Altitude Profile

Advertisement - Login to hide

MDSD

Details ICAO MDSD (SDQ)
Name Las Americas Intl
Region Dominican Republic
Timezone America/Santo_Domingo (UTC-4.0)
Stats Elevation 59 ft / 18 m (AMSL)
Location 18.429662° -69.668925°
Runways 1
Magnetic Variation 11.537° W

METAR

MDSD 170000Z 03005KT 9999 FEW018 25/22 Q1017 NOSIG

Decode

TAF

Not found

Departure Runways

ID Width Length Bearing (true) Bearing (mag) Surface Threshold Offset Overrun Length
17 200 ft / 61 m 11,051 ft / 3,368 m 160.78° 172.32° Asphalt 0 ft / 0 m 0 ft / 0 m
35 200 ft / 61 m 11,051 ft / 3,368 m 340.79° 352.33° Asphalt 0 ft / 0 m 0 ft / 0 m

MDLR

Details ICAO MDLR (LRM)
Name La Romana Casa De Campo Intl
Region Dominican Republic
Timezone America/Santo_Domingo (UTC-4.0)
Stats Elevation 238 ft / 73 m (AMSL)
Location 18.450713° -68.911834°
Runways 1
Magnetic Variation 11.909° W

METAR

MDLR 170000Z 00000KT 9999 SCT016 SCT300 23/23 Q1017

Decode

TAF

Not found

Destination Runways

ID Width Length Bearing (true) Bearing (mag) Surface Threshold Offset Overrun Length
11 148 ft / 45 m 9,666 ft / 2,946 m 97.07° 108.98° Concrete 0 ft / 0 m 200 ft / 61 m
29 148 ft / 45 m 9,666 ft / 2,946 m 277.08° 288.99° Concrete 0 ft / 0 m 200 ft / 61 m

Popular Alternatives